Time;durP1;ratioP1;P1;durP2;ratioP2;P2;SDS_P1;SDS_P2;PMS_P1;PMS_P2;Temp;Humidity;BMP_temperature;BMP_pressure;BME280_temperature;BME280_humidity;BME280_pressure;Samples;Min_cycle;Max_cycle;Signal;HPM_P1;HPM_P2
2023/05/21 00:00:47;;;;;;;;;22.25;22.25;;;;;15.96;67.27;100714.88;5035589;28;45261;-70
2023/05/21 00:03:14;;;;;;;;;22.50;22.50;;;;;15.93;67.65;100713.25;5035017;28;61500;-71
2023/05/21 00:05:40;;;;;;;;;23.50;23.50;;;;;15.93;67.59;100718.56;5035665;28;45221;-74
2023/05/21 00:08:05;;;;;;;;;42.75;37.50;;;;;15.96;67.93;100720.19;5035590;28;45384;-65
2023/05/21 00:10:31;;;;;;;;;20.25;20.25;;;;;15.88;68.00;100712.69;5035513;28;45676;-64
2023/05/21 00:12:56;;;;;;;;;22.50;22.50;;;;;15.85;68.32;100711.03;5033945;28;46165;-74
2023/05/21 00:15:22;;;;;;;;;20.75;20.75;;;;;15.87;68.02;100719.78;5035770;28;45324;-66
2023/05/21 00:17:47;;;;;;;;;20.75;20.75;;;;;15.88;68.01;100718.81;5035646;28;45296;-71
2023/05/21 00:20:12;;;;;;;;;24.25;22.50;;;;;15.85;68.40;100705.72;5035435;28;45624;-64
2023/05/21 00:22:39;;;;;;;;;25.25;24.00;;;;;15.87;68.69;100710.94;5034879;28;46971;-67
2023/05/21 00:25:05;;;;;;;;;25.25;24.00;;;;;15.84;68.78;100708.47;5034857;28;45263;-63
2023/05/21 00:27:30;;;;;;;;;18.25;18.25;;;;;15.84;69.27;100705.81;5033787;28;45817;-66
2023/05/21 00:29:56;;;;;;;;;23.75;23.75;;;;;15.82;68.94;100705.06;5035084;28;45677;-71
2023/05/21 00:32:21;;;;;;;;;25.25;25.25;;;;;15.76;69.57;100712.44;5036620;28;46411;-77
2023/05/21 00:34:47;;;;;;;;;22.00;22.00;;;;;15.76;69.38;100711.56;5033239;28;58580;-71
2023/05/21 00:37:14;;;;;;;;;23.75;23.75;;;;;15.73;69.56;100709.97;5035626;28;45397;-67
2023/05/21 00:39:39;;;;;;;;;21.50;20.75;;;;;15.77;70.05;100705.31;5043762;28;45342;-70
2023/05/21 00:42:05;;;;;;;;;22.50;22.50;;;;;15.72;69.96;100702.09;5040659;28;47020;-67
2023/05/21 00:44:34;;;;;;;;;23.25;23.25;;;;;15.72;70.41;100700.31;5040410;28;45229;-66
2023/05/21 00:47:03;;;;;;;;;25.50;25.50;;;;;15.69;70.72;100696.97;5037404;28;45243;-76
2023/05/21 00:49:30;;;;;;;;;22.00;22.00;;;;;15.62;70.82;100691.22;5035466;28;45561;-68
2023/05/21 00:51:56;;;;;;;;;22.25;22.25;;;;;15.60;71.41;100691.28;5035570;28;45218;-71
2023/05/21 00:54:22;;;;;;;;;23.00;23.00;;;;;15.56;71.12;100684.47;5035850;28;45222;-73
2023/05/21 00:56:49;;;;;;;;;21.25;21.25;;;;;15.53;71.66;100678.50;5036865;28;45314;-73
2023/05/21 00:59:15;;;;;;;;;24.25;23.75;;;;;15.51;71.58;100683.88;5038661;28;45241;-70
2023/05/21 01:01:44;;;;;;;;;21.75;21.75;;;;;15.49;71.70;100680.47;5039678;28;45580;-67
2023/05/21 01:04:09;;;;;;;;;24.75;24.75;;;;;15.51;71.85;100683.88;5037041;28;45429;-73
2023/05/21 01:06:35;;;;;;;;;24.25;24.25;;;;;15.43;72.34;100678.19;5036243;28;45352;-77
2023/05/21 01:09:03;;;;;;;;;24.00;24.00;;;;;15.42;72.37;100676.47;5034831;28;47009;-78
2023/05/21 01:11:42;;;;;;;;;26.25;26.25;;;;;15.40;72.49;100678.38;5033224;28;48211;-66
2023/05/21 01:14:11;;;;;;;;;24.50;24.50;;;;;15.30;72.98;100676.25;5034693;28;45335;-71
2023/05/21 01:16:38;;;;;;;;;27.25;27.25;;;;;15.31;72.96;100677.97;5034630;28;45340;-76
2023/05/21 01:19:05;;;;;;;;;21.25;21.25;;;;;15.28;73.89;100675.50;5035449;28;45435;-79
2023/05/21 01:21:36;;;;;;;;;24.50;24.50;;;;;15.22;73.90;100673.22;5055427;28;48063;-77
2023/05/21 01:24:04;;;;;;;;;25.75;25.75;;;;;15.15;74.11;100670.03;5045625;28;45223;-72
2023/05/21 01:26:32;;;;;;;;;24.25;24.25;;;;;15.17;74.30;100677.91;5040321;28;45283;-70
2023/05/21 01:28:57;;;;;;;;;21.25;21.25;;;;;15.12;74.81;100667.56;5035975;28;45380;-73
2023/05/21 01:31:30;;;;;;;;;24.00;24.00;;;;;15.14;74.15;100686.03;5035338;28;47663;-75
2023/05/21 01:34:01;;;;;;;;;25.25;25.25;;;;;15.11;74.73;100680.94;5036984;28;45478;-78
2023/05/21 01:36:33;;;;;;;;;25.00;25.00;;;;;15.13;75.14;100684.34;5036610;28;45279;-79
2023/05/21 01:39:37;;;;;;;;;26.75;26.75;;;;;15.10;75.04;100680.06;5036003;28;45312;-79
2023/05/21 01:42:04;;;;;;;;;26.00;26.00;;;;;15.09;75.15;100680.16;4993473;28;48694;-79
2023/05/21 01:44:32;;;;;;;;;29.00;29.00;;;;;15.06;75.60;100683.00;5038293;28;45686;-68
2023/05/21 01:46:58;;;;;;;;;27.25;26.75;;;;;15.04;75.10;100680.41;5037224;28;45376;-78
2023/05/21 01:49:24;;;;;;;;;26.25;26.25;;;;;15.02;75.48;100674.34;5038704;28;45618;-79
2023/05/21 01:51:50;;;;;;;;;24.75;24.75;;;;;15.01;75.42;100668.22;5037863;28;46481;-79
2023/05/21 01:54:15;;;;;;;;;25.50;25.00;;;;;15.02;75.54;100677.00;5038861;28;45449;-77
2023/05/21 01:56:40;;;;;;;;;25.50;25.50;;;;;14.93;75.99;100665.16;5039797;28;45442;-71
2023/05/21 01:59:06;;;;;;;;;25.75;25.75;;;;;14.90;76.49;100673.28;5039486;28;45564;-72
2023/05/21 02:01:31;;;;;;;;;27.50;27.50;;;;;14.88;76.65;100665.41;5038220;28;45820;-69
2023/05/21 02:03:57;;;;;;;;;31.00;30.50;;;;;14.84;76.93;100666.53;5038121;28;45272;-80
2023/05/21 02:06:22;;;;;;;;;25.75;25.75;;;;;14.89;76.80;100672.41;5037567;28;45306;-79
2023/05/21 02:08:48;;;;;;;;;30.50;29.50;;;;;14.88;77.02;100678.63;5037918;28;45379;-76
2023/05/21 02:11:13;;;;;;;;;29.25;29.00;;;;;14.71;77.38;100655.75;5037784;28;45331;-76
2023/05/21 02:13:39;;;;;;;;;27.25;27.25;;;;;14.82;77.31;100680.78;5037994;28;45287;-73
2023/05/21 02:16:08;;;;;;;;;29.25;28.75;;;;;14.80;77.15;100678.22;5037683;28;45400;-75
2023/05/21 02:18:35;;;;;;;;;29.75;29.25;;;;;14.79;77.51;100668.56;5039167;28;45306;-74
2023/05/21 02:21:00;;;;;;;;;27.50;27.50;;;;;14.79;77.58;100673.00;5042028;28;45442;-76
2023/05/21 02:23:26;;;;;;;;;28.50;28.50;;;;;14.72;78.30;100667.22;5037189;28;45399;-79
2023/05/21 02:25:51;;;;;;;;;29.50;28.75;;;;;14.67;78.04;100670.06;5040183;28;45910;-79
2023/05/21 02:28:16;;;;;;;;;31.00;30.50;;;;;14.71;78.03;100679.59;5041713;28;45509;-73
2023/05/21 02:30:42;;;;;;;;;31.75;31.25;;;;;14.72;78.30;100686.59;5046562;28;46426;-70
2023/05/21 02:33:07;;;;;;;;;33.50;31.00;;;;;14.72;78.35;100681.28;5047686;28;45519;-75
2023/05/21 02:35:33;;;;;;;;;25.75;25.75;;;;;14.71;78.91;100678.75;5037429;28;45361;-71
2023/05/21 02:38:01;;;;;;;;;30.50;30.00;;;;;14.71;78.64;100681.41;5038131;28;45499;-80
2023/05/21 02:40:27;;;;;;;;;29.00;29.00;;;;;14.73;78.40;100677.69;5037565;28;46221;-76
2023/05/21 02:42:52;;;;;;;;;30.00;29.50;;;;;14.73;78.62;100683.00;5037385;28;45224;-73
2023/05/21 02:45:17;;;;;;;;;31.75;31.25;;;;;14.73;78.81;100680.34;5037659;28;45303;-68
2023/05/21 02:47:43;;;;;;;;;32.00;31.50;;;;;14.71;78.72;100676.09;5037678;28;45264;-76
2023/05/21 02:50:08;;;;;;;;;29.75;29.50;;;;;14.68;78.85;100677.06;5038095;28;45252;-79
2023/05/21 02:52:34;;;;;;;;;33.50;31.50;;;;;14.70;79.01;100677.88;5038182;28;45292;-64
2023/05/21 02:55:00;;;;;;;;;28.75;28.75;;;;;14.67;79.70;100685.13;5041140;28;45270;-80
2023/05/21 02:57:25;;;;;;;;;28.75;28.75;;;;;14.61;78.80;100670.41;5044288;28;45499;-72
2023/05/21 02:59:50;;;;;;;;;30.50;30.00;;;;;14.66;79.55;100688.72;5042733;28;45490;-76
2023/05/21 03:02:16;;;;;;;;;31.00;30.00;;;;;14.62;79.22;100680.06;5040308;28;45453;-76
2023/05/21 03:04:44;;;;;;;;;28.25;28.25;;;;;14.62;79.46;100680.06;5038351;28;45441;-79
2023/05/21 03:07:14;;;;;;;;;31.50;31.00;;;;;14.59;79.32;100672.28;5036712;28;45202;-80
2023/05/21 03:09:40;;;;;;;;;32.25;31.25;;;;;14.56;79.54;100683.94;5036597;28;46925;-78
2023/05/21 03:12:07;;;;;;;;;36.00;32.50;;;;;14.53;80.30;100676.16;5036335;28;45355;-77
2023/05/21 03:14:32;;;;;;;;;31.50;31.00;;;;;14.46;80.18;100672.13;5052226;28;45451;-80
2023/05/21 03:16:58;;;;;;;;;30.25;30.00;;;;;14.49;80.05;100690.50;5035292;28;45590;-81
2023/05/21 03:19:23;;;;;;;;;33.25;32.25;;;;;14.47;79.97;100679.13;5051810;28;46051;-82
2023/05/21 03:21:49;;;;;;;;;29.00;29.00;;;;;14.50;79.79;100680.75;5036260;28;45357;-80
2023/05/21 03:24:14;;;;;;;;;31.25;30.25;;;;;14.45;80.33;100681.84;5036632;28;45366;-78
2023/05/21 03:26:40;;;;;;;;;30.75;30.75;;;;;14.42;80.15;100689.97;5036939;28;45381;-75
2023/05/21 03:29:05;;;;;;;;;28.25;28.25;;;;;14.39;80.53;100698.06;5036645;28;45528;-80
2023/05/21 03:31:30;;;;;;;;;33.25;32.25;;;;;14.32;81.32;100689.63;5036394;28;45264;-80
2023/05/21 03:33:56;;;;;;;;;33.25;32.25;;;;;14.34;81.76;100700.13;5036324;28;45810;-81
2023/05/21 03:36:21;;;;;;;;;33.00;29.75;;;;;14.31;81.52;100692.34;5036839;28;45395;-77
2023/05/21 03:38:46;;;;;;;;;30.50;30.00;;;;;14.31;81.73;100689.69;5034596;28;50115;-72
2023/05/21 03:41:12;;;;;;;;;32.00;31.50;;;;;14.30;81.67;100688.81;5036482;28;45250;-79
2023/05/21 03:43:37;;;;;;;;;30.00;30.00;;;;;14.29;81.69;100692.41;5051678;28;45253;-72
2023/05/21 03:46:02;;;;;;;;;34.00;32.75;;;;;14.27;81.96;100691.63;5035481;28;45233;-72
2023/05/21 03:48:28;;;;;;;;;32.50;31.75;;;;;14.27;82.23;100702.22;5036317;28;46235;-76
2023/05/21 03:50:54;;;;;;;;;31.25;31.00;;;;;14.25;82.40;100706.75;5036478;28;45224;-78
2023/05/21 03:53:19;;;;;;;;;29.25;29.25;;;;;14.23;82.28;100700.69;5036070;28;45403;-73
2023/05/21 03:55:46;;;;;;;;;36.25;33.75;;;;;14.21;82.62;100701.72;5036102;28;45481;-76
2023/05/21 03:58:11;;;;;;;;;32.25;31.25;;;;;14.19;82.48;100698.31;5051164;28;47173;-65
2023/05/21 04:00:36;;;;;;;;;34.00;33.00;;;;;14.20;83.10;100707.94;5035938;28;45357;-79
2023/05/21 04:03:03;;;;;;;;;38.50;35.25;;;;;14.12;82.96;100689.81;5034884;28;45333;-79
2023/05/21 04:05:28;;;;;;;;;36.25;33.25;;;;;14.16;83.06;100702.81;5035623;28;45670;-80
2023/05/21 04:07:53;;;;;;;;;33.50;32.25;;;;;14.22;83.00;100706.91;5036689;28;45298;-80
2023/05/21 04:10:19;;;;;;;;;39.00;34.00;;;;;14.24;83.34;100712.13;5036367;28;45918;-79
2023/05/21 04:12:45;;;;;;;;;34.75;32.75;;;;;14.24;82.94;100707.69;5045954;28;45360;-72
2023/05/21 04:15:10;;;;;;;;;39.00;35.75;;;;;14.25;83.00;100705.91;5047739;28;44817;-66
2023/05/21 04:17:35;;;;;;;;;40.25;35.75;;;;;14.27;82.50;100715.44;5046183;28;45327;-67
2023/05/21 04:20:01;;;;;;;;;36.25;34.00;;;;;14.28;82.83;100708.38;5042469;28;45279;-67
2023/05/21 04:22:26;;;;;;;;;34.00;32.75;;;;;14.31;83.31;100714.38;5040820;28;45612;-78
2023/05/21 04:24:53;;;;;;;;;39.00;35.75;;;;;14.31;82.67;100719.69;5038755;28;45578;-75
2023/05/21 04:27:22;;;;;;;;;36.25;34.00;;;;;14.31;82.62;100716.16;5055477;28;47792;-73
2023/05/21 04:29:48;;;;;;;;;36.25;34.00;;;;;14.30;82.38;100715.28;5038868;28;45354;-77
2023/05/21 04:32:16;;;;;;;;;37.00;34.00;;;;;14.30;82.51;100714.44;5043112;28;45391;-76
2023/05/21 04:34:42;;;;;;;;;37.00;33.50;;;;;14.31;82.55;100726.75;5048902;28;45492;-71
2023/05/21 04:37:08;;;;;;;;;39.25;35.50;;;;;14.32;82.59;100724.03;5044467;28;45434;-73
2023/05/21 04:39:34;;;;;;;;;34.25;32.50;;;;;14.31;82.49;100724.09;5050179;28;45183;-78
2023/05/21 04:42:00;;;;;;;;;32.75;31.75;;;;;14.28;82.36;100724.25;5053750;28;44709;-74
2023/05/21 04:44:26;;;;;;;;;34.00;32.25;;;;;14.31;83.00;100724.09;5045015;28;45422;-68
2023/05/21 04:46:53;;;;;;;;;33.75;31.50;;;;;14.29;82.32;100718.03;5037588;28;45419;-78
2023/05/21 04:49:19;;;;;;;;;37.50;34.50;;;;;14.30;82.81;100735.63;5037290;28;45435;-81
2023/05/21 04:51:45;;;;;;;;;36.50;33.75;;;;;14.28;82.65;100732.19;5036123;28;45384;-80
2023/05/21 04:54:11;;;;;;;;;34.50;32.50;;;;;14.29;82.64;100734.75;5036271;28;45514;-74
2023/05/21 04:56:36;;;;;;;;;37.00;34.50;;;;;14.24;83.06;100726.19;5036588;28;45305;-66
2023/05/21 04:59:02;;;;;;;;;36.75;34.25;;;;;14.25;83.14;100725.25;5036130;28;45179;-78
2023/05/21 05:01:28;;;;;;;;;34.25;33.00;;;;;14.30;82.88;100733.81;5036698;28;45444;-80
2023/05/21 05:03:54;;;;;;;;;37.00;34.25;;;;;14.32;82.94;100728.44;5036832;28;45225;-76
2023/05/21 05:06:20;;;;;;;;;33.50;32.50;;;;;14.38;82.53;100727.28;5035014;28;45387;-78
2023/05/21 05:08:45;;;;;;;;;33.50;32.25;;;;;14.43;82.01;100726.06;5033634;28;45494;-80
2023/05/21 05:11:11;;;;;;;;;38.50;35.25;;;;;14.42;82.45;100724.38;5035796;28;44821;-80
2023/05/21 05:13:38;;;;;;;;;38.00;34.50;;;;;14.40;82.41;100720.94;5035358;28;45364;-79
2023/05/21 05:16:04;;;;;;;;;37.25;34.25;;;;;14.49;82.05;100734.63;5033278;28;46537;-78
2023/05/21 05:18:30;;;;;;;;;38.75;35.50;;;;;14.52;81.90;100724.75;5036629;28;45232;-78
2023/05/21 05:20:55;;;;;;;;;38.75;35.50;;;;;14.57;81.70;100727.13;5039289;28;45331;-79
2023/05/21 05:23:21;;;;;;;;;39.50;36.00;;;;;14.55;81.57;100721.91;5039407;28;45292;-76
2023/05/21 05:25:46;;;;;;;;;40.25;35.50;;;;;14.64;81.60;100720.53;5038480;28;45773;-76
2023/05/21 05:28:11;;;;;;;;;35.50;32.75;;;;;14.70;81.29;100719.41;5038814;28;45190;-78
2023/05/21 05:30:37;;;;;;;;;37.75;34.50;;;;;14.71;80.70;100718.47;5038510;28;45360;-80
2023/05/21 05:33:02;;;;;;;;;40.75;35.75;;;;;14.78;80.32;100724.25;5039686;28;45268;-76
2023/05/21 05:35:27;;;;;;;;;35.75;33.75;;;;;14.81;80.45;100730.25;5040406;28;45774;-81
2023/05/21 05:37:53;;;;;;;;;38.00;35.25;;;;;14.89;80.23;100732.47;5046055;28;45195;-76
2023/05/21 05:40:18;;;;;;;;;34.25;32.00;;;;;14.99;79.88;100727.50;5038565;28;51116;-79
2023/05/21 05:42:44;;;;;;;;;38.00;34.50;;;;;15.04;79.29;100733.41;5038687;28;45666;-76
2023/05/21 05:45:10;;;;;;;;;34.50;32.75;;;;;15.11;78.63;100739.22;5038317;28;46445;-79
2023/05/21 05:47:35;;;;;;;;;37.50;34.25;;;;;15.21;78.43;100734.22;5038021;28;45370;-78
2023/05/21 05:50:00;;;;;;;;;38.25;34.75;;;;;15.30;78.23;100734.56;5038508;28;45375;-79
2023/05/21 05:52:26;;;;;;;;;34.00;32.25;;;;;15.32;77.93;100729.16;5038378;28;45604;-77
2023/05/21 05:54:51;;;;;;;;;38.00;34.25;;;;;15.34;77.77;100722.84;5038225;28;46241;-78
2023/05/21 05:57:16;;;;;;;;;35.00;33.00;;;;;15.43;77.43;100731.19;5037764;28;52207;-76
2023/05/21 05:59:44;;;;;;;;;37.75;34.75;;;;;15.48;77.11;100731.78;5045029;28;54175;-70
2023/05/21 06:02:10;;;;;;;;;37.50;34.25;;;;;15.48;76.82;100735.31;5051004;28;45390;-74
2023/05/21 06:04:35;;;;;;;;;34.25;32.25;;;;;15.46;76.57;100733.66;5067088;28;47229;-75
2023/05/21 06:07:00;;;;;;;;;31.25;30.50;;;;;15.44;76.83;100736.44;5044636;28;57286;-72
2023/05/21 06:09:26;;;;;;;;;32.00;31.00;;;;;15.40;76.62;100732.25;5037823;28;45284;-77
2023/05/21 06:11:51;;;;;;;;;38.25;34.75;;;;;15.35;76.78;100731.63;5038168;28;45446;-79
2023/05/21 06:14:17;;;;;;;;;38.00;34.75;;;;;15.33;76.52;100734.38;5037805;28;46575;-66
2023/05/21 06:16:42;;;;;;;;;45.00;39.00;;;;;15.37;76.57;100728.91;5038015;28;45312;-78
2023/05/21 06:19:07;;;;;;;;;36.50;34.25;;;;;15.34;76.41;100725.50;5052632;28;45495;-64
2023/05/21 06:21:33;;;;;;;;;34.25;32.00;;;;;15.27;76.64;100725.91;5037396;28;45535;-69
2023/05/21 06:23:58;;;;;;;;;34.50;32.75;;;;;15.28;76.61;100732.94;5036070;28;46163;-71
2023/05/21 06:26:24;;;;;;;;;38.25;34.00;;;;;15.39;76.92;100740.28;5037627;28;45221;-69
2023/05/21 06:28:49;;;;;;;;;36.75;33.75;;;;;15.52;76.45;100745.72;5036797;28;45284;-65
2023/05/21 06:31:15;;;;;;;;;40.25;35.50;;;;;15.57;76.26;100743.66;5037212;28;45588;-64
2023/05/21 06:33:40;;;;;;;;;32.75;31.25;;;;;15.69;75.77;100763.28;5036713;28;45483;-69
2023/05/21 06:36:06;;;;;;;;;36.75;34.00;;;;;15.73;75.29;100743.59;5036790;28;45288;-81
2023/05/21 06:38:31;;;;;;;;;35.50;32.25;;;;;15.86;74.75;100747.22;5037538;28;45378;-81
2023/05/21 06:40:57;;;;;;;;;37.25;34.25;;;;;15.95;74.38;100750.31;5038370;28;45923;-81
2023/05/21 06:43:23;;;;;;;;;35.00;32.75;;;;;16.05;73.94;100748.81;5037393;28;45962;-79
2023/05/21 06:45:48;;;;;;;;;37.50;34.25;;;;;16.16;73.83;100746.34;5036871;28;45427;-71
2023/05/21 06:48:15;;;;;;;;;37.25;34.25;;;;;16.30;73.37;100742.84;5036071;28;45357;-70
2023/05/21 06:50:41;;;;;;;;;41.50;36.25;;;;;16.46;72.87;100737.44;5037148;28;45280;-73
2023/05/21 06:53:06;;;;;;;;;26.25;25.25;;;;;16.57;71.93;100743.88;5052178;28;48406;-77
2023/05/21 06:55:32;;;;;;;;;33.50;31.50;;;;;16.60;71.24;100741.03;5036614;28;45392;-70
2023/05/21 06:57:57;;;;;;;;;39.50;34.00;;;;;16.56;71.43;100734.19;5037107;28;45378;-71
2023/05/21 07:00:23;;;;;;;;;36.50;33.50;;;;;16.64;71.16;100740.75;5035227;28;45341;-71
2023/05/21 07:02:48;;;;;;;;;34.75;32.00;;;;;16.69;71.16;100737.78;5036865;28;45396;-76
2023/05/21 07:05:13;;;;;;;;;36.25;32.50;;;;;16.73;70.89;100738.47;5038276;28;45388;-74
2023/05/21 07:07:39;;;;;;;;;34.50;32.25;;;;;16.81;70.58;100741.47;5037717;28;45130;-71
2023/05/21 07:10:05;;;;;;;;;34.50;31.75;;;;;16.74;70.05;100741.00;5036667;28;45330;-73
2023/05/21 07:12:33;;;;;;;;;31.00;30.00;;;;;16.71;69.87;100735.03;5036586;28;45379;-78
2023/05/21 07:14:59;;;;;;;;;35.50;33.00;;;;;16.73;70.44;100741.13;5037117;28;45477;-76
2023/05/21 07:17:24;;;;;;;;;34.75;32.25;;;;;16.76;70.04;100739.09;5037290;28;45804;-76
2023/05/21 07:19:49;;;;;;;;;34.75;32.25;;;;;16.86;70.11;100755.31;5037983;28;45752;-63
2023/05/21 07:22:15;;;;;;;;;34.00;32.00;;;;;16.80;69.55;100735.28;5037603;28;46638;-78
2023/05/21 07:24:40;;;;;;;;;40.25;35.25;;;;;16.82;69.46;100748.50;5036060;28;53723;-79
2023/05/21 07:27:05;;;;;;;;;38.50;35.00;;;;;16.80;69.59;100751.22;5037356;28;45404;-79
2023/05/21 07:29:32;;;;;;;;;35.25;33.00;;;;;16.83;69.67;100750.19;5037471;28;45458;-78
2023/05/21 07:31:58;;;;;;;;;32.25;31.00;;;;;16.84;69.45;100743.94;5035053;28;46321;-82
2023/05/21 07:34:23;;;;;;;;;37.00;34.00;;;;;16.87;69.76;100735.75;5035136;28;45275;-79
2023/05/21 07:36:48;;;;;;;;;37.25;33.50;;;;;16.93;69.13;100747.78;5036773;28;45279;-74
2023/05/21 07:39:14;;;;;;;;;39.50;34.50;;;;;16.95;69.14;100748.53;5036841;28;45552;-74
2023/05/21 07:41:39;;;;;;;;;27.00;27.00;;;;;17.04;69.28;100748.00;5034556;28;47732;-73
2023/05/21 07:44:05;;;;;;;;;42.75;37.50;;;;;17.11;69.07;100747.59;5036201;28;45217;-74
2023/05/21 07:46:30;;;;;;;;;37.25;33.75;;;;;17.20;68.54;100754.97;5040345;28;45297;-69
2023/05/21 07:48:55;;;;;;;;;33.00;31.00;;;;;17.22;68.26;100739.78;5042737;28;45434;-74
2023/05/21 07:51:21;;;;;;;;;36.00;33.00;;;;;17.25;67.42;100728.06;5041765;28;47040;-74
2023/05/21 07:53:46;;;;;;;;;32.75;31.00;;;;;17.30;67.54;100740.13;5041660;28;45343;-74
2023/05/21 07:56:11;;;;;;;;;32.00;30.75;;;;;17.36;67.44;100736.19;5040312;28;52000;-74
2023/05/21 07:58:38;;;;;;;;;27.25;27.25;;;;;17.37;67.21;100740.56;5039049;28;45450;-69
2023/05/21 08:01:03;;;;;;;;;33.00;31.25;;;;;17.34;67.06;100738.97;5037599;28;46352;-65
2023/05/21 08:03:29;;;;;;;;;30.00;29.25;;;;;17.35;66.77;100740.66;5037026;28;45324;-75
2023/05/21 08:05:55;;;;;;;;;31.50;30.50;;;;;17.39;66.71;100741.31;5035951;28;45349;-78
2023/05/21 08:08:20;;;;;;;;;33.00;31.00;;;;;17.42;66.59;100735.78;5036621;28;45457;-76
2023/05/21 08:10:46;;;;;;;;;33.75;31.25;;;;;17.48;66.47;100743.34;5039402;28;48186;-72
2023/05/21 08:13:12;;;;;;;;;23.25;23.25;;;;;17.56;66.57;100745.50;5046845;28;44707;-81
2023/05/21 08:15:37;;;;;;;;;26.00;25.50;;;;;17.63;66.29;100752.13;5044590;28;45331;-71
2023/05/21 08:18:04;;;;;;;;;28.00;28.00;;;;;17.67;65.83;100732.31;5047188;28;53461;-65
2023/05/21 08:20:31;;;;;;;;;32.75;31.00;;;;;17.71;65.53;100734.78;5048549;28;45490;-83
2023/05/21 08:22:56;;;;;;;;;25.25;25.25;;;;;17.77;64.62;100735.22;5038359;28;45399;-76
2023/05/21 08:25:22;;;;;;;;;27.25;27.25;;;;;17.80;64.73;100724.38;5035797;28;45732;-79
2023/05/21 08:27:47;;;;;;;;;26.75;26.75;;;;;17.81;64.49;100722.56;5037154;28;45543;-82
2023/05/21 08:30:13;;;;;;;;;28.25;28.25;;;;;17.88;64.72;100725.66;5036473;28;46474;-73
2023/05/21 08:32:38;;;;;;;;;23.50;23.50;;;;;17.96;64.39;100716.16;5036301;28;45272;-73
2023/05/21 08:35:04;;;;;;;;;23.50;23.50;;;;;17.96;63.78;100713.50;5036561;28;45270;-81
2023/05/21 08:37:30;;;;;;;;;23.00;22.75;;;;;17.98;62.99;100715.22;5037211;28;45344;-81
2023/05/21 08:39:55;;;;;;;;;23.25;23.00;;;;;17.94;62.44;100718.09;5036142;28;46242;-70
2023/05/21 08:42:41;;;;;;;;;19.75;19.75;;;;;17.95;62.41;100726.94;5036834;28;45187;-84
2023/05/21 08:45:09;;;;;;;;;22.25;22.25;;;;;18.01;62.52;100725.66;5036247;28;46715;-82
2023/05/21 08:47:35;;;;;;;;;19.50;19.50;;;;;18.05;61.59;100737.84;5036508;28;45602;-70
2023/05/21 08:50:09;;;;;;;;;19.50;19.50;;;;;18.11;61.47;100729.44;5051308;28;47591;-71
2023/05/21 08:52:34;;;;;;;;;21.00;21.00;;;;;18.16;60.75;100732.63;5037736;28;45221;-82
2023/05/21 08:55:02;;;;;;;;;20.50;20.25;;;;;18.18;60.50;100729.84;5042406;28;45281;-71
2023/05/21 08:57:29;;;;;;;;;20.00;19.50;;;;;18.23;60.90;100733.03;5047766;28;45330;-72
2023/05/21 08:59:55;;;;;;;;;22.00;21.25;;;;;18.20;61.01;100714.59;5039683;28;46799;-74
2023/05/21 09:02:20;;;;;;;;;20.50;20.50;;;;;18.28;60.22;100708.75;5038388;28;45321;-72
2023/05/21 09:04:48;;;;;;;;;20.25;20.25;;;;;18.25;60.05;100710.66;5038996;28;45412;-73
2023/05/21 09:07:15;;;;;;;;;18.50;18.50;;;;;18.34;59.87;100716.31;5040134;28;45190;-79
2023/05/21 09:09:48;;;;;;;;;21.50;21.50;;;;;18.36;59.68;100720.53;5055182;28;47041;-69
2023/05/21 09:12:14;;;;;;;;;20.50;20.50;;;;;18.39;60.33;100715.00;5054825;28;45244;-74
2023/05/21 09:14:41;;;;;;;;;23.00;23.00;;;;;18.44;59.92;100709.34;5038669;28;45230;-78
2023/05/21 09:17:07;;;;;;;;;18.75;18.75;;;;;18.43;59.64;100710.31;5038686;28;45613;-83
2023/05/21 09:19:32;;;;;;;;;20.50;20.50;;;;;18.48;60.38;100718.84;5038252;28;46241;-68
2023/05/21 09:22:02;;;;;;;;;21.00;21.00;;;;;18.53;59.77;100716.69;5038557;28;45315;-67
2023/05/21 09:24:30;;;;;;;;;22.00;22.00;;;;;18.57;59.88;100727.13;5046489;28;45236;-68
2023/05/21 09:26:58;;;;;;;;;22.75;22.75;;;;;18.56;60.19;100715.63;5052850;28;44779;-78
2023/05/21 09:29:25;;;;;;;;;23.25;23.25;;;;;18.68;59.68;100720.06;5040078;28;47156;-78
2023/05/21 09:31:51;;;;;;;;;27.75;27.25;;;;;18.72;58.87;100731.34;5039790;28;45360;-69
2023/05/21 09:34:16;;;;;;;;;23.75;23.75;;;;;18.75;59.27;100714.28;5038263;28;45429;-73
2023/05/21 09:36:45;;;;;;;;;26.50;26.50;;;;;18.82;59.65;100723.53;5038596;28;45198;-71
2023/05/21 09:39:15;;;;;;;;;24.25;24.25;;;;;18.92;59.69;100723.69;5038366;28;45579;-78
2023/05/21 09:41:41;;;;;;;;;26.00;26.00;;;;;18.97;59.76;100725.13;5039089;28;45491;-78
2023/05/21 09:44:06;;;;;;;;;21.00;21.00;;;;;19.05;59.59;100711.19;5041004;28;45436;-76
2023/05/21 09:46:40;;;;;;;;;25.75;25.75;;;;;19.15;58.75;100716.72;5036629;28;45316;-70
2023/05/21 09:49:05;;;;;;;;;23.00;23.00;;;;;19.17;58.57;100704.13;5038713;28;45660;-73
2023/05/21 09:51:31;;;;;;;;;29.75;29.25;;;;;19.21;59.02;100724.25;5037189;28;45304;-72
2023/05/21 09:53:57;;;;;;;;;29.25;29.00;;;;;19.28;58.73;100708.66;5041419;28;45366;-75
2023/05/21 09:56:25;;;;;;;;;31.00;29.75;;;;;19.37;58.70;100709.75;5040215;28;45235;-81
2023/05/21 09:58:55;;;;;;;;;25.00;25.00;;;;;19.38;58.69;100687.47;5039077;28;45508;-76
2023/05/21 10:01:22;;;;;;;;;24.25;24.25;;;;;19.55;58.52;100702.19;5040607;28;45244;-78
2023/05/21 10:03:52;;;;;;;;;26.00;26.00;;;;;19.67;58.02;100697.75;5039766;28;45473;-72
2023/05/21 10:06:19;;;;;;;;;25.75;25.75;;;;;19.77;57.44;100696.06;5038655;28;45535;-78
2023/05/21 10:08:48;;;;;;;;;25.50;25.50;;;;;19.86;57.17;100686.47;5055064;28;47214;-78
2023/05/21 10:11:16;;;;;;;;;26.00;26.00;;;;;19.90;57.21;100679.97;5039504;28;45408;-74
2023/05/21 10:13:47;;;;;;;;;26.25;26.25;;;;;19.94;56.75;100689.44;5038700;28;45323;-79
2023/05/21 10:16:14;;;;;;;;;28.00;28.00;;;;;19.95;56.08;100676.94;5038790;28;45427;-79
2023/05/21 10:18:41;;;;;;;;;28.00;28.00;;;;;20.05;56.32;100688.59;5038123;28;47009;-76
2023/05/21 10:21:07;;;;;;;;;28.00;28.00;;;;;20.07;56.48;100675.97;5038714;28;45449;-74
2023/05/21 10:23:35;;;;;;;;;20.25;20.25;;;;;20.22;55.66;100683.75;5038528;28;45534;-70
2023/05/21 10:26:02;;;;;;;;;25.25;25.25;;;;;20.32;54.34;100691.88;5038440;28;45526;-69
2023/05/21 10:28:30;;;;;;;;;26.75;26.75;;;;;20.38;54.97;100696.72;5037707;28;47367;-69
2023/05/21 10:30:56;;;;;;;;;23.50;23.50;;;;;20.50;53.93;100687.72;5040098;28;45301;-77
2023/05/21 10:33:25;;;;;;;;;22.75;22.75;;;;;20.61;54.21;100689.50;5038838;28;45376;-70
2023/05/21 10:35:53;;;;;;;;;20.75;20.75;;;;;20.66;53.66;100683.81;5038541;28;45900;-66
2023/05/21 10:38:19;;;;;;;;;22.25;21.25;;;;;20.71;54.32;100682.47;5038097;28;46455;-71
2023/05/21 10:40:47;;;;;;;;;23.00;23.00;;;;;20.81;53.13;100682.56;5036714;28;45349;-74
2023/05/21 10:43:13;;;;;;;;;21.75;21.75;;;;;20.85;53.32;100692.03;5038109;28;45312;-77
2023/05/21 10:45:38;;;;;;;;;21.75;20.00;;;;;20.90;52.94;100680.13;5038515;28;45404;-78
2023/05/21 10:48:12;;;;;;;;;27.00;27.00;;;;;21.04;52.66;100681.66;5037847;28;45685;-78
2023/05/21 10:50:57;;;;;;;;;23.50;23.50;;;;;21.16;52.50;100676.13;5040370;28;45355;-79
2023/05/21 10:53:51;;;;;;;;;22.75;22.75;;;;;21.30;52.15;100676.81;5040259;28;45349;-65
2023/05/21 10:56:29;;;;;;;;;24.00;24.00;;;;;21.48;52.38;100686.94;5016676;28;45564;-72
2023/05/21 10:59:17;;;;;;;;;22.25;22.25;;;;;21.60;52.05;100675.19;5037562;28;47089;-73
2023/05/21 11:01:43;;;;;;;;;18.00;18.00;;;;;21.66;51.32;100672.00;5037155;28;45707;-70
2023/05/21 11:04:11;;;;;;;;;20.50;20.50;;;;;21.71;51.43;100672.47;5039004;28;45260;-75
2023/05/21 11:06:36;;;;;;;;;21.75;21.75;;;;;21.68;51.12;100670.03;5038000;28;45379;-70